sensor_id;sensor_type;location;lat;lon;timestamp;P1;durP1;ratioP1;P2;durP2;ratioP2
75935;SDS011;64614;32.062;34.834;2023-04-24T00:01:52;6.38;;;2.83;;
75935;SDS011;64614;32.062;34.834;2023-04-24T00:04:18;6.03;;;3.25;;
75935;SDS011;64614;32.062;34.834;2023-04-24T00:06:45;4.38;;;2.70;;
75935;SDS011;64614;32.062;34.834;2023-04-24T00:09:14;6.05;;;2.65;;
75935;SDS011;64614;32.062;34.834;2023-04-24T00:11:40;5.38;;;3.10;;
75935;SDS011;64614;32.062;34.834;2023-04-24T00:14:06;5.40;;;2.95;;
75935;SDS011;64614;32.062;34.834;2023-04-24T00:16:32;5.65;;;3.00;;
75935;SDS011;64614;32.062;34.834;2023-04-24T00:18:58;5.03;;;2.90;;
75935;SDS011;64614;32.062;34.834;2023-04-24T00:21:25;5.45;;;3.20;;
75935;SDS011;64614;32.062;34.834;2023-04-24T00:23:52;5.03;;;3.00;;
75935;SDS011;64614;32.062;34.834;2023-04-24T00:26:18;6.63;;;2.90;;
75935;SDS011;64614;32.062;34.834;2023-04-24T00:28:43;5.20;;;3.10;;
75935;SDS011;64614;32.062;34.834;2023-04-24T00:31:10;4.38;;;2.80;;
75935;SDS011;64614;32.062;34.834;2023-04-24T00:33:36;5.03;;;2.97;;
75935;SDS011;64614;32.062;34.834;2023-04-24T00:36:02;5.30;;;2.97;;
75935;SDS011;64614;32.062;34.834;2023-04-24T00:38:29;5.93;;;3.38;;
75935;SDS011;64614;32.062;34.834;2023-04-24T00:43:31;5.40;;;3.05;;
75935;SDS011;64614;32.062;34.834;2023-04-24T00:45:58;7.60;;;3.50;;
75935;SDS011;64614;32.062;34.834;2023-04-24T00:58:47;6.47;;;3.58;;
75935;SDS011;64614;32.062;34.834;2023-04-24T01:01:13;5.93;;;3.50;;
75935;SDS011;64614;32.062;34.834;2023-04-24T01:03:39;7.82;;;3.45;;
75935;SDS011;64614;32.062;34.834;2023-04-24T01:06:07;5.78;;;3.30;;
75935;SDS011;64614;32.062;34.834;2023-04-24T01:08:35;6.93;;;3.35;;
75935;SDS011;64614;32.062;34.834;2023-04-24T01:11:02;6.13;;;3.35;;
75935;SDS011;64614;32.062;34.834;2023-04-24T01:13:29;5.82;;;3.42;;
75935;SDS011;64614;32.062;34.834;2023-04-24T01:15:57;5.80;;;3.55;;
75935;SDS011;64614;32.062;34.834;2023-04-24T01:18:24;6.00;;;3.45;;
75935;SDS011;64614;32.062;34.834;2023-04-24T01:20:52;5.53;;;3.50;;
75935;SDS011;64614;32.062;34.834;2023-04-24T01:31:07;8.00;;;4.03;;
75935;SDS011;64614;32.062;34.834;2023-04-24T01:33:33;6.32;;;3.60;;
75935;SDS011;64614;32.062;34.834;2023-04-24T01:36:01;5.97;;;3.70;;
75935;SDS011;64614;32.062;34.834;2023-04-24T01:38:28;6.63;;;3.85;;
75935;SDS011;64614;32.062;34.834;2023-04-24T01:40:55;5.85;;;3.30;;
75935;SDS011;64614;32.062;34.834;2023-04-24T01:43:20;7.35;;;4.00;;
75935;SDS011;64614;32.062;34.834;2023-04-24T02:01:18;6.90;;;4.00;;
75935;SDS011;64614;32.062;34.834;2023-04-24T02:03:46;6.57;;;3.90;;
75935;SDS011;64614;32.062;34.834;2023-04-24T02:06:12;6.90;;;4.07;;
75935;SDS011;64614;32.062;34.834;2023-04-24T02:08:38;7.65;;;4.03;;
75935;SDS011;64614;32.062;34.834;2023-04-24T02:16:14;6.30;;;3.92;;
75935;SDS011;64614;32.062;34.834;2023-04-24T02:18:39;7.07;;;4.15;;
75935;SDS011;64614;32.062;34.834;2023-04-24T02:21:05;6.40;;;3.80;;
75935;SDS011;64614;32.062;34.834;2023-04-24T02:23:32;7.43;;;3.97;;
75935;SDS011;64614;32.062;34.834;2023-04-24T02:28:34;7.28;;;3.95;;
75935;SDS011;64614;32.062;34.834;2023-04-24T02:30:59;6.50;;;4.05;;
75935;SDS011;64614;32.062;34.834;2023-04-24T02:33:25;7.47;;;4.57;;
75935;SDS011;64614;32.062;34.834;2023-04-24T02:35:51;6.82;;;4.32;;
75935;SDS011;64614;32.062;34.834;2023-04-24T02:40:43;6.93;;;4.30;;
75935;SDS011;64614;32.062;34.834;2023-04-24T02:43:08;7.05;;;4.30;;
75935;SDS011;64614;32.062;34.834;2023-04-24T02:45:36;7.53;;;4.18;;
75935;SDS011;64614;32.062;34.834;2023-04-24T02:48:03;8.25;;;4.28;;
75935;SDS011;64614;32.062;34.834;2023-04-24T02:50:29;7.32;;;4.30;;
75935;SDS011;64614;32.062;34.834;2023-04-24T02:52:54;7.93;;;4.25;;
75935;SDS011;64614;32.062;34.834;2023-04-24T02:55:20;7.45;;;4.20;;
75935;SDS011;64614;32.062;34.834;2023-04-24T02:57:46;6.85;;;4.03;;
75935;SDS011;64614;32.062;34.834;2023-04-24T03:00:12;7.72;;;4.35;;
75935;SDS011;64614;32.062;34.834;2023-04-24T03:02:38;7.70;;;4.85;;
75935;SDS011;64614;32.062;34.834;2023-04-24T03:05:04;7.93;;;4.45;;
75935;SDS011;64614;32.062;34.834;2023-04-24T03:07:30;7.60;;;4.15;;
75935;SDS011;64614;32.062;34.834;2023-04-24T03:09:56;7.72;;;4.20;;
75935;SDS011;64614;32.062;34.834;2023-04-24T03:12:24;8.48;;;4.15;;
75935;SDS011;64614;32.062;34.834;2023-04-24T03:17:25;8.48;;;4.63;;
75935;SDS011;64614;32.062;34.834;2023-04-24T03:19:52;7.70;;;5.00;;
75935;SDS011;64614;32.062;34.834;2023-04-24T03:22:17;7.63;;;4.82;;
75935;SDS011;64614;32.062;34.834;2023-04-24T03:24:43;9.95;;;5.13;;
75935;SDS011;64614;32.062;34.834;2023-04-24T03:27:09;9.73;;;5.50;;
75935;SDS011;64614;32.062;34.834;2023-04-24T03:39:43;10.85;;;4.55;;
75935;SDS011;64614;32.062;34.834;2023-04-24T03:42:10;9.95;;;5.07;;
75935;SDS011;64614;32.062;34.834;2023-04-24T03:44:36;11.60;;;5.40;;
75935;SDS011;64614;32.062;34.834;2023-04-24T03:47:02;10.93;;;6.00;;
75935;SDS011;64614;32.062;34.834;2023-04-24T03:49:27;10.98;;;5.72;;
75935;SDS011;64614;32.062;34.834;2023-04-24T03:54:36;12.43;;;5.97;;
75935;SDS011;64614;32.062;34.834;2023-04-24T03:57:02;11.45;;;6.05;;
75935;SDS011;64614;32.062;34.834;2023-04-24T03:59:28;12.55;;;5.40;;
75935;SDS011;64614;32.062;34.834;2023-04-24T04:07:04;11.05;;;5.22;;
75935;SDS011;64614;32.062;34.834;2023-04-24T04:09:32;12.40;;;5.53;;
75935;SDS011;64614;32.062;34.834;2023-04-24T04:12:04;11.98;;;5.35;;
75935;SDS011;64614;32.062;34.834;2023-04-24T04:16:55;9.85;;;5.38;;
75935;SDS011;64614;32.062;34.834;2023-04-24T04:19:22;12.70;;;5.50;;
75935;SDS011;64614;32.062;34.834;2023-04-24T04:21:50;13.32;;;6.20;;
75935;SDS011;64614;32.062;34.834;2023-04-24T04:24:18;11.60;;;5.85;;
75935;SDS011;64614;32.062;34.834;2023-04-24T04:26:47;13.20;;;6.28;;
75935;SDS011;64614;32.062;34.834;2023-04-24T04:29:16;12.60;;;6.45;;
75935;SDS011;64614;32.062;34.834;2023-04-24T04:31:49;15.93;;;7.18;;
75935;SDS011;64614;32.062;34.834;2023-04-24T04:34:15;14.77;;;7.65;;
75935;SDS011;64614;32.062;34.834;2023-04-24T04:36:41;19.10;;;9.35;;
75935;SDS011;64614;32.062;34.834;2023-04-24T04:39:09;18.88;;;8.75;;
75935;SDS011;64614;32.062;34.834;2023-04-24T04:41:34;19.42;;;9.80;;
75935;SDS011;64614;32.062;34.834;2023-04-24T04:46:35;21.63;;;10.85;;
75935;SDS011;64614;32.062;34.834;2023-04-24T04:49:02;19.10;;;9.85;;
75935;SDS011;64614;32.062;34.834;2023-04-24T04:51:37;20.42;;;9.55;;
75935;SDS011;64614;32.062;34.834;2023-04-24T04:54:03;20.08;;;9.45;;
75935;SDS011;64614;32.062;34.834;2023-04-24T04:56:30;22.10;;;9.32;;
75935;SDS011;64614;32.062;34.834;2023-04-24T04:58:55;19.08;;;9.23;;
75935;SDS011;64614;32.062;34.834;2023-04-24T05:01:21;18.40;;;9.00;;
75935;SDS011;64614;32.062;34.834;2023-04-24T05:03:48;19.70;;;9.52;;
75935;SDS011;64614;32.062;34.834;2023-04-24T05:06:16;18.90;;;8.70;;
75935;SDS011;64614;32.062;34.834;2023-04-24T05:08:42;20.25;;;8.93;;
75935;SDS011;64614;32.062;34.834;2023-04-24T05:11:07;18.48;;;9.35;;
75935;SDS011;64614;32.062;34.834;2023-04-24T05:13:33;20.60;;;9.25;;
75935;SDS011;64614;32.062;34.834;2023-04-24T05:15:59;15.23;;;9.07;;
75935;SDS011;64614;32.062;34.834;2023-04-24T05:18:24;18.63;;;8.80;;
75935;SDS011;64614;32.062;34.834;2023-04-24T05:23:25;17.30;;;8.25;;
75935;SDS011;64614;32.062;34.834;2023-04-24T05:25:51;15.60;;;8.30;;
75935;SDS011;64614;32.062;34.834;2023-04-24T05:28:17;15.23;;;7.82;;
75935;SDS011;64614;32.062;34.834;2023-04-24T05:43:37;16.30;;;8.10;;
75935;SDS011;64614;32.062;34.834;2023-04-24T05:46:03;15.05;;;7.45;;
75935;SDS011;64614;32.062;34.834;2023-04-24T05:48:28;13.30;;;7.15;;
75935;SDS011;64614;32.062;34.834;2023-04-24T05:50:56;14.02;;;6.90;;
75935;SDS011;64614;32.062;34.834;2023-04-24T05:53:21;13.23;;;6.70;;
75935;SDS011;64614;32.062;34.834;2023-04-24T05:55:47;13.13;;;7.20;;
75935;SDS011;64614;32.062;34.834;2023-04-24T06:00:48;13.75;;;6.85;;
75935;SDS011;64614;32.062;34.834;2023-04-24T06:03:15;12.68;;;6.53;;
75935;SDS011;64614;32.062;34.834;2023-04-24T06:05:43;12.77;;;6.82;;
75935;SDS011;64614;32.062;34.834;2023-04-24T06:08:10;12.60;;;6.40;;
75935;SDS011;64614;32.062;34.834;2023-04-24T06:10:36;10.63;;;5.95;;
75935;SDS011;64614;32.062;34.834;2023-04-24T06:13:02;12.85;;;6.47;;
75935;SDS011;64614;32.062;34.834;2023-04-24T06:15:29;11.50;;;5.88;;
75935;SDS011;64614;32.062;34.834;2023-04-24T06:17:57;11.93;;;5.90;;
75935;SDS011;64614;32.062;34.834;2023-04-24T06:20:25;11.82;;;6.45;;
75935;SDS011;64614;32.062;34.834;2023-04-24T06:22:52;10.88;;;6.13;;
75935;SDS011;64614;32.062;34.834;2023-04-24T06:27:51;11.23;;;5.70;;
75935;SDS011;64614;32.062;34.834;2023-04-24T06:30:17;10.70;;;6.18;;
75935;SDS011;64614;32.062;34.834;2023-04-24T06:32:42;10.90;;;6.22;;
75935;SDS011;64614;32.062;34.834;2023-04-24T06:35:08;11.20;;;5.78;;
75935;SDS011;64614;32.062;34.834;2023-04-24T06:37:35;10.15;;;5.68;;
75935;SDS011;64614;32.062;34.834;2023-04-24T06:40:01;10.60;;;5.57;;
75935;SDS011;64614;32.062;34.834;2023-04-24T06:42:27;10.18;;;5.57;;
75935;SDS011;64614;32.062;34.834;2023-04-24T06:44:52;10.25;;;4.95;;
75935;SDS011;64614;32.062;34.834;2023-04-24T06:47:18;9.60;;;5.05;;
75935;SDS011;64614;32.062;34.834;2023-04-24T06:49:44;10.15;;;5.03;;
75935;SDS011;64614;32.062;34.834;2023-04-24T06:52:09;10.32;;;5.22;;
75935;SDS011;64614;32.062;34.834;2023-04-24T06:54:35;9.63;;;5.03;;
75935;SDS011;64614;32.062;34.834;2023-04-24T06:57:01;8.32;;;4.70;;
75935;SDS011;64614;32.062;34.834;2023-04-24T06:59:28;9.13;;;4.57;;
75935;SDS011;64614;32.062;34.834;2023-04-24T07:01:54;10.50;;;5.05;;
75935;SDS011;64614;32.062;34.834;2023-04-24T07:04:20;8.57;;;4.60;;
75935;SDS011;64614;32.062;34.834;2023-04-24T07:09:22;7.57;;;3.72;;
75935;SDS011;64614;32.062;34.834;2023-04-24T07:11:49;8.45;;;4.07;;
75935;SDS011;64614;32.062;34.834;2023-04-24T07:14:15;7.95;;;4.75;;
75935;SDS011;64614;32.062;34.834;2023-04-24T07:16:41;7.75;;;3.90;;
75935;SDS011;64614;32.062;34.834;2023-04-24T07:19:07;8.02;;;4.15;;
75935;SDS011;64614;32.062;34.834;2023-04-24T07:21:33;7.20;;;3.90;;
75935;SDS011;64614;32.062;34.834;2023-04-24T07:23:59;7.13;;;3.72;;
75935;SDS011;64614;32.062;34.834;2023-04-24T07:26:25;6.85;;;3.58;;
75935;SDS011;64614;32.062;34.834;2023-04-24T07:28:54;7.07;;;4.05;;
75935;SDS011;64614;32.062;34.834;2023-04-24T07:31:20;6.95;;;3.17;;
75935;SDS011;64614;32.062;34.834;2023-04-24T07:33:46;6.75;;;3.60;;
75935;SDS011;64614;32.062;34.834;2023-04-24T07:36:12;6.13;;;3.03;;
75935;SDS011;64614;32.062;34.834;2023-04-24T07:38:42;7.47;;;3.38;;
75935;SDS011;64614;32.062;34.834;2023-04-24T07:41:08;5.72;;;3.10;;
75935;SDS011;64614;32.062;34.834;2023-04-24T07:43:34;6.05;;;3.20;;
75935;SDS011;64614;32.062;34.834;2023-04-24T07:46:02;6.20;;;3.40;;
75935;SDS011;64614;32.062;34.834;2023-04-24T07:48:28;5.28;;;2.97;;
75935;SDS011;64614;32.062;34.834;2023-04-24T07:50:55;6.15;;;3.00;;
75935;SDS011;64614;32.062;34.834;2023-04-24T07:53:22;7.00;;;3.15;;
75935;SDS011;64614;32.062;34.834;2023-04-24T07:55:50;5.70;;;3.35;;
75935;SDS011;64614;32.062;34.834;2023-04-24T07:58:39;7.65;;;3.20;;
75935;SDS011;64614;32.062;34.834;2023-04-24T08:01:05;5.90;;;3.20;;
75935;SDS011;64614;32.062;34.834;2023-04-24T08:03:31;6.45;;;3.35;;
75935;SDS011;64614;32.062;34.834;2023-04-24T08:05:58;5.53;;;3.20;;
75935;SDS011;64614;32.062;34.834;2023-04-24T08:08:24;6.43;;;3.33;;
75935;SDS011;64614;32.062;34.834;2023-04-24T08:10:51;5.55;;;3.13;;
75935;SDS011;64614;32.062;34.834;2023-04-24T08:13:18;5.78;;;3.13;;
75935;SDS011;64614;32.062;34.834;2023-04-24T08:15:44;6.15;;;3.13;;
75935;SDS011;64614;32.062;34.834;2023-04-24T08:18:11;6.30;;;3.10;;
75935;SDS011;64614;32.062;34.834;2023-04-24T08:20:38;5.45;;;3.15;;
75935;SDS011;64614;32.062;34.834;2023-04-24T08:23:04;5.63;;;3.00;;
75935;SDS011;64614;32.062;34.834;2023-04-24T08:28:07;5.63;;;3.08;;
75935;SDS011;64614;32.062;34.834;2023-04-24T08:30:34;5.85;;;3.42;;
75935;SDS011;64614;32.062;34.834;2023-04-24T08:38:07;6.50;;;3.30;;
75935;SDS011;64614;32.062;34.834;2023-04-24T08:40:33;4.80;;;3.00;;
75935;SDS011;64614;32.062;34.834;2023-04-24T08:43:02;5.53;;;3.28;;
75935;SDS011;64614;32.062;34.834;2023-04-24T08:45:29;4.85;;;3.00;;
75935;SDS011;64614;32.062;34.834;2023-04-24T08:47:59;5.00;;;3.15;;
75935;SDS011;64614;32.062;34.834;2023-04-24T08:50:27;5.82;;;3.20;;
75935;SDS011;64614;32.062;34.834;2023-04-24T08:52:54;4.72;;;2.78;;
75935;SDS011;64614;32.062;34.834;2023-04-24T08:55:21;6.20;;;3.35;;
75935;SDS011;64614;32.062;34.834;2023-04-24T08:57:50;5.60;;;3.00;;
75935;SDS011;64614;32.062;34.834;2023-04-24T09:00:18;5.20;;;2.80;;
75935;SDS011;64614;32.062;34.834;2023-04-24T09:05:13;5.60;;;2.88;;
75935;SDS011;64614;32.062;34.834;2023-04-24T09:07:44;4.88;;;2.92;;
75935;SDS011;64614;32.062;34.834;2023-04-24T09:10:14;4.68;;;2.83;;
75935;SDS011;64614;32.062;34.834;2023-04-24T09:12:41;4.93;;;2.80;;
75935;SDS011;64614;32.062;34.834;2023-04-24T09:15:07;6.15;;;3.00;;
75935;SDS011;64614;32.062;34.834;2023-04-24T09:17:34;6.25;;;3.00;;
75935;SDS011;64614;32.062;34.834;2023-04-24T09:20:00;5.47;;;3.03;;
75935;SDS011;64614;32.062;34.834;2023-04-24T09:22:28;5.50;;;2.92;;
75935;SDS011;64614;32.062;34.834;2023-04-24T09:27:22;5.95;;;2.85;;
75935;SDS011;64614;32.062;34.834;2023-04-24T09:29:53;4.75;;;2.70;;
75935;SDS011;64614;32.062;34.834;2023-04-24T09:32:21;5.43;;;2.67;;
75935;SDS011;64614;32.062;34.834;2023-04-24T09:35:13;4.28;;;2.42;;
75935;SDS011;64614;32.062;34.834;2023-04-24T09:37:39;4.22;;;2.40;;
75935;SDS011;64614;32.062;34.834;2023-04-24T09:40:14;3.88;;;2.30;;
75935;SDS011;64614;32.062;34.834;2023-04-24T09:42:53;3.53;;;2.20;;
75935;SDS011;64614;32.062;34.834;2023-04-24T09:45:35;3.83;;;2.17;;
75935;SDS011;64614;32.062;34.834;2023-04-24T09:50:37;4.68;;;2.28;;
75935;SDS011;64614;32.062;34.834;2023-04-24T09:53:03;3.80;;;2.10;;
75935;SDS011;64614;32.062;34.834;2023-04-24T09:55:39;4.53;;;2.20;;
75935;SDS011;64614;32.062;34.834;2023-04-24T09:58:09;3.20;;;2.20;;
75935;SDS011;64614;32.062;34.834;2023-04-24T10:07:19;9.65;;;2.40;;
75935;SDS011;64614;32.062;34.834;2023-04-24T10:09:45;6.97;;;2.22;;
75935;SDS011;64614;32.062;34.834;2023-04-24T10:12:11;5.72;;;2.55;;
75935;SDS011;64614;32.062;34.834;2023-04-24T10:14:38;5.28;;;2.05;;
75935;SDS011;64614;32.062;34.834;2023-04-24T10:17:04;3.15;;;1.80;;
75935;SDS011;64614;32.062;34.834;2023-04-24T10:19:31;3.92;;;2.00;;
75935;SDS011;64614;32.062;34.834;2023-04-24T10:21:58;3.60;;;2.03;;
75935;SDS011;64614;32.062;34.834;2023-04-24T10:26:57;4.05;;;2.00;;
75935;SDS011;64614;32.062;34.834;2023-04-24T10:29:23;3.20;;;2.00;;
75935;SDS011;64614;32.062;34.834;2023-04-24T10:31:51;2.70;;;1.70;;
75935;SDS011;64614;32.062;34.834;2023-04-24T10:36:52;4.25;;;1.75;;
75935;SDS011;64614;32.062;34.834;2023-04-24T10:39:19;3.47;;;1.70;;
75935;SDS011;64614;32.062;34.834;2023-04-24T10:41:48;3.70;;;1.83;;
75935;SDS011;64614;32.062;34.834;2023-04-24T10:44:15;2.42;;;1.55;;
75935;SDS011;64614;32.062;34.834;2023-04-24T10:46:45;3.80;;;1.70;;
75935;SDS011;64614;32.062;34.834;2023-04-24T10:49:15;3.25;;;1.60;;
75935;SDS011;64614;32.062;34.834;2023-04-24T10:51:44;3.47;;;1.50;;
75935;SDS011;64614;32.062;34.834;2023-04-24T11:00:16;3.03;;;1.70;;
75935;SDS011;64614;32.062;34.834;2023-04-24T11:02:46;3.03;;;1.70;;
75935;SDS011;64614;32.062;34.834;2023-04-24T11:05:18;3.20;;;1.60;;
75935;SDS011;64614;32.062;34.834;2023-04-24T11:10:47;3.45;;;1.40;;
75935;SDS011;64614;32.062;34.834;2023-04-24T11:13:21;3.90;;;1.85;;
75935;SDS011;64614;32.062;34.834;2023-04-24T11:19:09;2.58;;;1.30;;
75935;SDS011;64614;32.062;34.834;2023-04-24T11:21:47;2.40;;;1.50;;
75935;SDS011;64614;32.062;34.834;2023-04-24T11:29:40;2.30;;;1.30;;
75935;SDS011;64614;32.062;34.834;2023-04-24T11:32:19;2.10;;;1.40;;
75935;SDS011;64614;32.062;34.834;2023-04-24T11:34:55;1.90;;;1.20;;
75935;SDS011;64614;32.062;34.834;2023-04-24T11:37:22;2.45;;;1.30;;
75935;SDS011;64614;32.062;34.834;2023-04-24T11:39:54;1.90;;;1.30;;
75935;SDS011;64614;32.062;34.834;2023-04-24T11:42:22;1.52;;;1.23;;
75935;SDS011;64614;32.062;34.834;2023-04-24T11:44:49;1.20;;;1.10;;
75935;SDS011;64614;32.062;34.834;2023-04-24T11:49:50;1.95;;;1.38;;
75935;SDS011;64614;32.062;34.834;2023-04-24T11:52:16;2.40;;;1.30;;
75935;SDS011;64614;32.062;34.834;2023-04-24T12:00:27;2.17;;;1.40;;
75935;SDS011;64614;32.062;34.834;2023-04-24T12:03:06;2.75;;;1.30;;
75935;SDS011;64614;32.062;34.834;2023-04-24T12:09:18;2.38;;;1.40;;
75935;SDS011;64614;32.062;34.834;2023-04-24T12:18:04;2.47;;;1.60;;
75935;SDS011;64614;32.062;34.834;2023-04-24T12:20:35;7.13;;;2.80;;
75935;SDS011;64614;32.062;34.834;2023-04-24T12:23:00;5.18;;;2.67;;
75935;SDS011;64614;32.062;34.834;2023-04-24T12:25:28;4.60;;;2.50;;
75935;SDS011;64614;32.062;34.834;2023-04-24T12:31:03;6.18;;;2.70;;
75935;SDS011;64614;32.062;34.834;2023-04-24T12:33:25;5.38;;;2.40;;
75935;SDS011;64614;32.062;34.834;2023-04-24T12:35:54;4.28;;;2.30;;
75935;SDS011;64614;32.062;34.834;2023-04-24T12:38:22;3.70;;;2.40;;
75935;SDS011;64614;32.062;34.834;2023-04-24T12:41:00;3.78;;;2.28;;
75935;SDS011;64614;32.062;34.834;2023-04-24T12:43:30;4.00;;;2.00;;
75935;SDS011;64614;32.062;34.834;2023-04-24T12:45:56;3.80;;;2.08;;
75935;SDS011;64614;32.062;34.834;2023-04-24T12:48:22;4.07;;;2.10;;
75935;SDS011;64614;32.062;34.834;2023-04-24T12:50:48;4.72;;;2.13;;
75935;SDS011;64614;32.062;34.834;2023-04-24T12:53:15;3.60;;;2.13;;
75935;SDS011;64614;32.062;34.834;2023-04-24T12:55:42;2.88;;;1.65;;
75935;SDS011;64614;32.062;34.834;2023-04-24T12:58:09;3.67;;;1.85;;
75935;SDS011;64614;32.062;34.834;2023-04-24T13:00:35;4.70;;;1.80;;
75935;SDS011;64614;32.062;34.834;2023-04-24T13:03:01;3.70;;;1.92;;
75935;SDS011;64614;32.062;34.834;2023-04-24T13:05:28;3.08;;;1.83;;
75935;SDS011;64614;32.062;34.834;2023-04-24T13:07:57;2.60;;;1.70;;
75935;SDS011;64614;32.062;34.834;2023-04-24T13:10:22;3.30;;;1.80;;
75935;SDS011;64614;32.062;34.834;2023-04-24T13:12:48;2.20;;;1.70;;
75935;SDS011;64614;32.062;34.834;2023-04-24T13:15:14;2.40;;;1.65;;
75935;SDS011;64614;32.062;34.834;2023-04-24T13:17:40;5.05;;;1.90;;
75935;SDS011;64614;32.062;34.834;2023-04-24T13:20:12;2.78;;;1.88;;
75935;SDS011;64614;32.062;34.834;2023-04-24T13:22:39;4.43;;;1.80;;
75935;SDS011;64614;32.062;34.834;2023-04-24T13:25:08;3.30;;;1.75;;
75935;SDS011;64614;32.062;34.834;2023-04-24T13:27:34;3.65;;;1.85;;
75935;SDS011;64614;32.062;34.834;2023-04-24T13:30:00;3.90;;;2.00;;
75935;SDS011;64614;32.062;34.834;2023-04-24T13:32:25;2.67;;;1.73;;
75935;SDS011;64614;32.062;34.834;2023-04-24T13:34:52;3.10;;;1.75;;
75935;SDS011;64614;32.062;34.834;2023-04-24T13:37:18;2.58;;;1.88;;
75935;SDS011;64614;32.062;34.834;2023-04-24T13:39:44;2.72;;;1.73;;
75935;SDS011;64614;32.062;34.834;2023-04-24T13:42:10;2.92;;;1.73;;
75935;SDS011;64614;32.062;34.834;2023-04-24T13:44:37;3.78;;;1.80;;
75935;SDS011;64614;32.062;34.834;2023-04-24T13:47:03;2.90;;;1.70;;
75935;SDS011;64614;32.062;34.834;2023-04-24T13:49:29;3.63;;;1.98;;
75935;SDS011;64614;32.062;34.834;2023-04-24T13:51:55;2.97;;;1.80;;
75935;SDS011;64614;32.062;34.834;2023-04-24T13:54:21;3.08;;;1.88;;
75935;SDS011;64614;32.062;34.834;2023-04-24T13:56:48;2.28;;;1.70;;
75935;SDS011;64614;32.062;34.834;2023-04-24T13:59:14;3.20;;;2.00;;
75935;SDS011;64614;32.062;34.834;2023-04-24T14:01:43;2.95;;;1.90;;
75935;SDS011;64614;32.062;34.834;2023-04-24T14:04:10;3.25;;;1.85;;
75935;SDS011;64614;32.062;34.834;2023-04-24T14:06:36;3.45;;;1.90;;
75935;SDS011;64614;32.062;34.834;2023-04-24T14:09:03;3.15;;;1.75;;
75935;SDS011;64614;32.062;34.834;2023-04-24T14:11:30;3.22;;;2.00;;
75935;SDS011;64614;32.062;34.834;2023-04-24T14:13:55;3.00;;;1.75;;
75935;SDS011;64614;32.062;34.834;2023-04-24T14:16:21;3.30;;;1.75;;
75935;SDS011;64614;32.062;34.834;2023-04-24T14:18:47;3.70;;;1.98;;
75935;SDS011;64614;32.062;34.834;2023-04-24T14:21:13;2.60;;;1.90;;
75935;SDS011;64614;32.062;34.834;2023-04-24T14:23:38;3.05;;;1.70;;
75935;SDS011;64614;32.062;34.834;2023-04-24T14:26:04;3.40;;;1.90;;
75935;SDS011;64614;32.062;34.834;2023-04-24T14:28:30;2.65;;;1.77;;
75935;SDS011;64614;32.062;34.834;2023-04-24T14:30:57;3.30;;;1.90;;
75935;SDS011;64614;32.062;34.834;2023-04-24T14:33:23;3.10;;;1.80;;
75935;SDS011;64614;32.062;34.834;2023-04-24T14:35:48;3.13;;;1.75;;
75935;SDS011;64614;32.062;34.834;2023-04-24T14:38:14;2.95;;;1.83;;
75935;SDS011;64614;32.062;34.834;2023-04-24T14:40:41;2.95;;;1.80;;
75935;SDS011;64614;32.062;34.834;2023-04-24T14:43:06;2.45;;;1.60;;
75935;SDS011;64614;32.062;34.834;2023-04-24T14:45:35;3.67;;;1.80;;
75935;SDS011;64614;32.062;34.834;2023-04-24T14:48:02;3.45;;;2.03;;
75935;SDS011;64614;32.062;34.834;2023-04-24T14:50:35;3.25;;;1.98;;
75935;SDS011;64614;32.062;34.834;2023-04-24T14:53:04;3.05;;;1.80;;
75935;SDS011;64614;32.062;34.834;2023-04-24T14:55:30;3.20;;;1.80;;
75935;SDS011;64614;32.062;34.834;2023-04-24T14:57:56;3.95;;;1.90;;
75935;SDS011;64614;32.062;34.834;2023-04-24T15:00:22;3.63;;;1.73;;
75935;SDS011;64614;32.062;34.834;2023-04-24T15:02:50;3.20;;;1.88;;
75935;SDS011;64614;32.062;34.834;2023-04-24T15:05:16;3.33;;;1.80;;
75935;SDS011;64614;32.062;34.834;2023-04-24T15:07:43;3.33;;;1.85;;
75935;SDS011;64614;32.062;34.834;2023-04-24T15:10:11;4.13;;;1.73;;
75935;SDS011;64614;32.062;34.834;2023-04-24T15:12:38;4.10;;;1.83;;
75935;SDS011;64614;32.062;34.834;2023-04-24T15:15:04;3.80;;;1.88;;
75935;SDS011;64614;32.062;34.834;2023-04-24T15:17:30;2.67;;;1.75;;
75935;SDS011;64614;32.062;34.834;2023-04-24T15:19:56;2.88;;;1.80;;
75935;SDS011;64614;32.062;34.834;2023-04-24T15:22:23;3.28;;;1.80;;
75935;SDS011;64614;32.062;34.834;2023-04-24T15:27:24;3.10;;;1.58;;
75935;SDS011;64614;32.062;34.834;2023-04-24T15:29:50;3.40;;;1.52;;
75935;SDS011;64614;32.062;34.834;2023-04-24T15:32:15;2.30;;;1.60;;
75935;SDS011;64614;32.062;34.834;2023-04-24T15:37:17;3.90;;;1.80;;
75935;SDS011;64614;32.062;34.834;2023-04-24T15:39:43;3.63;;;1.60;;
75935;SDS011;64614;32.062;34.834;2023-04-24T15:42:10;3.30;;;1.55;;
75935;SDS011;64614;32.062;34.834;2023-04-24T15:44:35;2.50;;;1.58;;
75935;SDS011;64614;32.062;34.834;2023-04-24T15:47:01;4.03;;;1.67;;
75935;SDS011;64614;32.062;34.834;2023-04-24T15:49:27;2.65;;;1.50;;
75935;SDS011;64614;32.062;34.834;2023-04-24T15:51:52;3.67;;;1.80;;
75935;SDS011;64614;32.062;34.834;2023-04-24T15:54:18;3.25;;;1.60;;
75935;SDS011;64614;32.062;34.834;2023-04-24T15:56:45;3.95;;;1.90;;
75935;SDS011;64614;32.062;34.834;2023-04-24T15:59:16;3.25;;;1.70;;
75935;SDS011;64614;32.062;34.834;2023-04-24T16:01:43;4.40;;;1.90;;
75935;SDS011;64614;32.062;34.834;2023-04-24T16:04:10;4.55;;;1.65;;
75935;SDS011;64614;32.062;34.834;2023-04-24T16:06:36;5.00;;;1.75;;
75935;SDS011;64614;32.062;34.834;2023-04-24T16:09:07;4.75;;;1.77;;
75935;SDS011;64614;32.062;34.834;2023-04-24T16:11:43;4.93;;;1.90;;
75935;SDS011;64614;32.062;34.834;2023-04-24T16:22:31;3.25;;;1.60;;
75935;SDS011;64614;32.062;34.834;2023-04-24T17:15:09;3.97;;;2.20;;
75935;SDS011;64614;32.062;34.834;2023-04-24T17:17:36;3.67;;;1.88;;
75935;SDS011;64614;32.062;34.834;2023-04-24T17:20:20;5.28;;;2.00;;
75935;SDS011;64614;32.062;34.834;2023-04-24T17:28:24;2.88;;;1.80;;
75935;SDS011;64614;32.062;34.834;2023-04-24T17:31:14;4.65;;;1.98;;
75935;SDS011;64614;32.062;34.834;2023-04-24T17:33:39;3.58;;;1.80;;
75935;SDS011;64614;32.062;34.834;2023-04-24T17:36:05;3.67;;;2.00;;
75935;SDS011;64614;32.062;34.834;2023-04-24T17:38:32;3.15;;;1.85;;
75935;SDS011;64614;32.062;34.834;2023-04-24T17:46:10;3.90;;;2.00;;
75935;SDS011;64614;32.062;34.834;2023-04-24T17:52:18;3.25;;;1.63;;
75935;SDS011;64614;32.062;34.834;2023-04-24T18:00:32;2.95;;;1.90;;
75935;SDS011;64614;32.062;34.834;2023-04-24T18:02:59;3.55;;;2.10;;
75935;SDS011;64614;32.062;34.834;2023-04-24T18:05:29;3.55;;;1.70;;
75935;SDS011;64614;32.062;34.834;2023-04-24T18:07:56;3.63;;;1.92;;
75935;SDS011;64614;32.062;34.834;2023-04-24T18:10:22;3.60;;;2.10;;
75935;SDS011;64614;32.062;34.834;2023-04-24T18:20:35;5.07;;;1.83;;
75935;SDS011;64614;32.062;34.834;2023-04-24T18:23:01;4.68;;;1.90;;
75935;SDS011;64614;32.062;34.834;2023-04-24T18:25:27;3.00;;;2.00;;
75935;SDS011;64614;32.062;34.834;2023-04-24T18:27:54;3.65;;;1.92;;
75935;SDS011;64614;32.062;34.834;2023-04-24T18:33:14;3.22;;;1.90;;
75935;SDS011;64614;32.062;34.834;2023-04-24T18:43:46;3.33;;;1.80;;
75935;SDS011;64614;32.062;34.834;2023-04-24T18:46:18;3.78;;;1.95;;
75935;SDS011;64614;32.062;34.834;2023-04-24T18:51:11;4.30;;;2.28;;
75935;SDS011;64614;32.062;34.834;2023-04-24T18:53:37;6.30;;;2.65;;
75935;SDS011;64614;32.062;34.834;2023-04-24T18:56:03;5.07;;;2.17;;
75935;SDS011;64614;32.062;34.834;2023-04-24T18:58:30;4.03;;;1.92;;
75935;SDS011;64614;32.062;34.834;2023-04-24T19:00:56;4.35;;;2.10;;